Time;durP1;ratioP1;P1;durP2;ratioP2;P2;SDS_P1;SDS_P2;PMS_P1;PMS_P2;Temp;Humidity;BMP_temperature;BMP_pressure;BME280_temperature;BME280_humidity;BME280_pressure;Samples;Min_cycle;Max_cycle;Signal;HPM_P1;HPM_P2
2023/08/03 00:00:38;;;;;;;8.07;2.75;;;15.40;99.90;;;;;;6071608;23;20023;-88
2023/08/03 00:03:05;;;;;;;8.43;3.30;;;15.40;99.90;;;;;;6048807;23;20029;-87
2023/08/03 00:05:31;;;;;;;7.47;3.78;;;15.40;99.90;;;;;;6072559;23;20022;-87
2023/08/03 00:07:57;;;;;;;8.10;3.10;;;15.40;99.90;;;;;;6071747;23;20016;-88
2023/08/03 00:10:23;;;;;;;5.68;3.15;;;15.40;99.90;;;;;;6096452;23;20022;-87
2023/08/03 00:12:49;;;;;;;8.02;3.80;;;15.40;99.90;;;;;;6096188;23;20400;-87
2023/08/03 00:15:16;;;;;;;5.65;2.88;;;15.40;99.90;;;;;;6024905;23;20403;-88
2023/08/03 00:17:42;;;;;;;6.20;3.85;;;15.40;99.90;;;;;;6048196;23;20338;-88
2023/08/03 00:20:09;;;;;;;5.82;3.05;;;15.40;99.90;;;;;;6072759;23;20022;-88
2023/08/03 00:22:35;;;;;;;6.60;3.08;;;15.40;99.90;;;;;;6098186;23;20171;-88
2023/08/03 00:25:01;;;;;;;;;;;15.40;99.90;;;;;;6072042;23;20028;-88
2023/08/03 00:27:27;;;;;;;5.22;3.00;;;15.40;99.90;;;;;;6097603;23;19948;-88
2023/08/03 00:29:54;;;;;;;7.80;3.08;;;15.40;99.90;;;;;;6097376;23;20014;-88
2023/08/03 00:32:20;;;;;;;5.57;3.00;;;15.40;99.90;;;;;;6097445;23;20022;-88
2023/08/03 00:34:46;;;;;;;5.18;2.97;;;15.40;99.90;;;;;;6047662;23;20097;-88
2023/08/03 00:37:12;;;;;;;4.30;2.75;;;15.40;99.90;;;;;;6072143;23;20061;-88
2023/08/03 00:39:38;;;;;;;6.95;2.75;;;15.40;99.90;;;;;;6093121;23;20033;-88
2023/08/03 00:42:05;;;;;;;8.00;3.93;;;15.40;99.90;;;;;;6095876;23;20015;-87
2023/08/03 00:44:31;;;;;;;8.05;2.90;;;15.40;99.90;;;;;;6098006;23;20247;-87
2023/08/03 00:46:56;;;;;;;8.95;3.25;;;15.50;99.90;;;;;;6097377;23;20026;-88
2023/08/03 00:49:27;;;;;;;5.68;3.10;;;15.40;99.90;;;;;;6072447;23;20022;-87
2023/08/03 00:51:57;;;;;;;8.95;3.45;;;15.50;99.90;;;;;;6072799;23;20023;-88
2023/08/03 00:54:23;;;;;;;8.23;3.05;;;15.50;99.90;;;;;;6095713;23;20085;-88
2023/08/03 00:56:49;;;;;;;6.57;3.13;;;15.50;99.90;;;;;;6095691;23;20064;-88
2023/08/03 00:59:15;;;;;;;7.70;2.45;;;15.40;99.90;;;;;;6071262;23;20054;-87
2023/08/03 01:01:41;;;;;;;6.40;2.35;;;15.40;99.90;;;;;;6097835;23;20105;-87
2023/08/03 01:04:07;;;;;;;7.88;2.60;;;15.40;99.90;;;;;;6071705;23;20025;-87
2023/08/03 01:06:33;;;;;;;5.18;2.35;;;15.40;99.90;;;;;;6097953;23;20018;-87
2023/08/03 01:09:00;;;;;;;4.90;2.55;;;15.40;99.90;;;;;;6071970;23;20431;-88
2023/08/03 01:11:28;;;;;;;3.30;2.13;;;15.40;99.90;;;;;;6097856;23;20026;-88
2023/08/03 01:13:54;;;;;;;5.00;2.63;;;15.40;99.90;;;;;;6096940;23;20434;-88
2023/08/03 01:16:20;;;;;;;4.13;2.33;;;15.40;99.90;;;;;;6096017;23;20026;-88
2023/08/03 01:18:46;;;;;;;3.80;2.00;;;15.40;99.90;;;;;;6095770;23;20335;-90
2023/08/03 01:21:13;;;;;;;3.72;1.83;;;15.40;99.90;;;;;;6097224;23;20026;-88
2023/08/03 01:23:39;;;;;;;1.92;1.75;;;15.40;99.90;;;;;;6097318;23;20089;-88
2023/08/03 01:26:04;;;;;;;2.00;1.50;;;15.40;99.90;;;;;;6097123;23;20104;-88
2023/08/03 01:28:30;;;;;;;4.90;1.80;;;15.40;99.90;;;;;;6071877;23;20746;-88
2023/08/03 01:30:56;;;;;;;2.67;1.70;;;15.40;99.90;;;;;;6096027;23;20018;-88
2023/08/03 01:33:22;;;;;;;3.17;1.45;;;15.40;99.90;;;;;;6095753;23;20030;-88
2023/08/03 01:35:49;;;;;;;;;;;15.40;99.90;;;;;;6071937;23;20025;-91
2023/08/03 01:38:15;;;;;;;2.55;1.85;;;15.30;99.90;;;;;;6106622;23;19917;-88
2023/08/03 01:40:42;;;;;;;5.50;1.50;;;15.40;99.90;;;;;;6100567;23;20032;-88
2023/08/03 01:43:07;;;;;;;1.75;1.27;;;15.40;99.90;;;;;;6076422;23;20261;-88
2023/08/03 01:45:34;;;;;;;4.03;1.75;;;15.40;99.90;;;;;;6076244;23;20021;-88
2023/08/03 01:47:59;;;;;;;1.98;1.25;;;15.40;99.90;;;;;;6099389;23;20085;-88
2023/08/03 01:50:25;;;;;;;4.10;1.67;;;15.40;99.90;;;;;;6076610;23;20061;-88
2023/08/03 01:52:51;;;;;;;2.83;1.50;;;15.40;99.90;;;;;;6125750;23;20025;-92
2023/08/03 01:55:16;;;;;;;1.97;1.57;;;15.40;99.90;;;;;;6100237;23;20746;-88
2023/08/03 01:57:42;;;;;;;3.70;1.70;;;15.40;99.90;;;;;;6076123;23;20482;-88
2023/08/03 02:00:08;;;;;;;3.03;1.90;;;15.40;99.90;;;;;;6099405;23;20720;-88
2023/08/03 02:02:34;;;;;;;3.53;2.10;;;15.40;99.90;;;;;;6100040;23;20089;-87
2023/08/03 02:04:59;;;;;;;4.07;2.03;;;15.30;99.90;;;;;;6126073;23;20093;-88
2023/08/03 02:07:46;;;;;;;2.47;1.93;;;15.40;99.90;;;;;;6100575;23;20036;-88
2023/08/03 02:10:13;;;;;;;6.60;2.40;;;15.40;99.90;;;;;;6075710;23;20258;-88
2023/08/03 02:12:39;;;;;;;3.15;2.53;;;15.40;99.90;;;;;;6100429;23;20100;-88
2023/08/03 02:15:06;;;;;;;3.63;2.27;;;15.40;99.90;;;;;;6075783;23;20431;-88
2023/08/03 02:17:33;;;;;;;4.60;2.22;;;15.40;99.90;;;;;;6076592;23;20583;-87
2023/08/03 02:19:59;;;;;;;4.65;2.53;;;15.40;99.90;;;;;;6099647;23;20053;-88
2023/08/03 02:22:25;;;;;;;2.30;2.10;;;15.40;99.90;;;;;;6099338;23;20014;-88
2023/08/03 02:24:51;;;;;;;4.18;2.20;;;15.40;99.90;;;;;;6126136;23;20070;-88
2023/08/03 02:27:16;;;;;;;2.88;2.40;;;15.40;99.90;;;;;;6125610;23;20029;-87
2023/08/03 02:29:42;;;;;;;2.58;2.28;;;15.40;99.90;;;;;;6125550;23;20024;-88
2023/08/03 02:32:08;;;;;;;4.00;2.47;;;15.40;99.90;;;;;;6125543;23;20098;-87
2023/08/03 02:34:33;;;;;;;5.35;3.22;;;15.40;99.90;;;;;;6126083;23;20018;-88
2023/08/03 02:36:59;;;;;;;3.30;3.00;;;15.40;99.90;;;;;;6099315;23;20026;-89
2023/08/03 02:39:25;;;;;;;4.60;3.47;;;15.40;99.90;;;;;;6094704;23;20061;-87
2023/08/03 02:41:52;;;;;;;5.10;2.63;;;15.40;99.90;;;;;;6095332;23;20258;-88
2023/08/03 02:44:18;;;;;;;3.53;3.10;;;15.40;99.90;;;;;;6070957;23;20713;-89
2023/08/03 02:46:44;;;;;;;3.80;2.88;;;15.40;99.90;;;;;;6095102;23;20025;-88
2023/08/03 02:49:10;;;;;;;3.93;2.87;;;15.40;99.90;;;;;;6094119;23;20025;-88
2023/08/03 02:51:35;;;;;;;5.95;2.92;;;15.40;99.90;;;;;;6070711;23;20338;-88
2023/08/03 02:54:01;;;;;;;8.17;3.30;;;15.40;99.90;;;;;;6095973;23;20017;-88
2023/08/03 02:56:26;;;;;;;6.63;2.90;;;15.40;99.90;;;;;;6095174;23;20404;-88
2023/08/03 02:58:54;;;;;;;3.37;2.73;;;15.40;99.90;;;;;;6095343;23;20343;-87
2023/08/03 03:01:19;;;;;;;4.72;2.95;;;15.40;99.90;;;;;;6094879;23;20022;-87
2023/08/03 03:03:45;;;;;;;3.47;3.17;;;15.40;99.90;;;;;;6071015;23;20032;-87
2023/08/03 03:06:11;;;;;;;3.40;2.88;;;15.40;99.90;;;;;;6093816;23;20054;-88
2023/08/03 03:08:36;;;;;;;2.97;2.77;;;15.40;99.90;;;;;;6095087;23;20026;-87
2023/08/03 03:11:02;;;;;;;5.00;3.27;;;15.40;99.90;;;;;;6070864;23;20014;-88
2023/08/03 03:13:28;;;;;;;5.30;4.50;;;15.40;99.90;;;;;;6095090;23;20253;-87
2023/08/03 03:15:53;;;;;;;6.20;4.13;;;15.40;99.90;;;;;;6096224;23;20057;-87
2023/08/03 03:18:19;;;;;;;8.70;4.10;;;15.50;99.90;;;;;;6070599;23;20019;-87
2023/08/03 03:20:45;;;;;;;5.43;4.32;;;15.50;99.90;;;;;;6095059;23;20014;-87
2023/08/03 03:23:10;;;;;;;6.43;5.27;;;15.50;99.90;;;;;;6046744;23;20058;-88
2023/08/03 03:25:36;;;;;;;8.73;5.40;;;15.50;99.90;;;;;;6095163;23;20026;-88
2023/08/03 03:28:04;;;;;;;8.10;6.20;;;15.50;99.90;;;;;;6096593;23;20455;-87
2023/08/03 03:30:31;;;;;;;10.20;6.60;;;15.50;99.90;;;;;;6094259;23;20089;-88
2023/08/03 03:32:57;;;;;;;13.77;7.75;;;15.50;99.90;;;;;;6070717;23;20022;-87
2023/08/03 03:35:22;;;;;;;9.82;7.82;;;15.50;99.90;;;;;;6094467;23;20015;-87
2023/08/03 03:37:48;;;;;;;14.00;9.00;;;15.50;99.90;;;;;;6098755;23;20407;-89
2023/08/03 03:40:14;;;;;;;11.65;8.60;;;15.50;99.90;;;;;;6075514;23;20063;-88
2023/08/03 03:42:39;;;;;;;11.38;8.27;;;15.50;99.90;;;;;;6099472;23;20025;-87
2023/08/03 03:45:06;;;;;;;14.93;9.50;;;15.50;99.90;;;;;;6099481;23;20029;-90
2023/08/03 03:47:32;;;;;;;16.05;10.93;;;15.50;99.90;;;;;;6075996;23;20465;-88
2023/08/03 03:49:58;;;;;;;13.48;10.10;;;15.50;99.90;;;;;;6099867;23;20022;-87
2023/08/03 03:52:23;;;;;;;18.95;10.63;;;15.60;99.90;;;;;;6099396;23;20022;-87
2023/08/03 03:54:49;;;;;;;16.20;10.73;;;15.60;99.90;;;;;;6099994;23;20018;-88
2023/08/03 03:57:15;;;;;;;15.13;9.63;;;15.60;99.90;;;;;;6074659;23;20281;-88
2023/08/03 03:59:40;;;;;;;12.37;9.27;;;15.60;99.90;;;;;;6051998;23;20026;-88
2023/08/03 04:02:06;;;;;;;16.33;10.07;;;15.60;99.90;;;;;;6099570;23;20018;-88
2023/08/03 04:04:32;;;;;;;11.53;8.30;;;15.60;99.90;;;;;;6124633;23;20230;-88
2023/08/03 04:06:57;;;;;;;13.83;9.57;;;15.60;99.90;;;;;;6099465;23;20053;-89
2023/08/03 04:09:23;;;;;;;10.97;8.43;;;15.60;99.90;;;;;;6099418;23;20077;-88
2023/08/03 04:11:49;;;;;;;12.07;8.20;;;15.60;99.90;;;;;;6076003;23;20014;-88
2023/08/03 04:14:14;;;;;;;14.83;9.07;;;15.50;99.90;;;;;;6124855;23;20297;-88
2023/08/03 04:16:40;;;;;;;14.47;8.57;;;15.50;99.90;;;;;;6126610;23;20029;-88
2023/08/03 04:19:06;;;;;;;16.13;8.80;;;15.50;99.90;;;;;;6126920;23;20324;-88
2023/08/03 04:21:31;;;;;;;13.07;7.80;;;15.50;99.90;;;;;;6126432;23;20242;-88
2023/08/03 04:23:57;;;;;;;18.20;10.00;;;15.50;99.90;;;;;;6077389;23;20093;-88
2023/08/03 04:26:23;;;;;;;17.97;9.13;;;15.40;99.90;;;;;;6100626;23;20261;-88
2023/08/03 04:28:48;;;;;;;14.23;8.23;;;15.40;99.90;;;;;;6077352;23;20014;-88
2023/08/03 04:31:14;;;;;;;15.83;8.47;;;15.40;99.90;;;;;;6126000;23;20049;-88
2023/08/03 04:33:40;;;;;;;21.17;8.95;;;15.50;99.90;;;;;;6126353;23;20093;-88
2023/08/03 04:36:06;;;;;;;13.30;8.37;;;15.50;99.90;;;;;;6077382;23;20426;-87
2023/08/03 04:38:31;;;;;;;14.25;8.65;;;15.40;99.90;;;;;;6126222;23;20555;-88
2023/08/03 04:41:00;;;;;;;19.75;9.02;;;15.50;99.90;;;;;;6127124;23;20026;-88
2023/08/03 04:43:27;;;;;;;22.77;9.32;;;15.50;99.90;;;;;;6100514;23;20432;-88
2023/08/03 04:45:53;;;;;;;15.82;7.30;;;15.50;99.90;;;;;;6101146;23;20295;-88
2023/08/03 04:48:18;;;;;;;14.05;8.13;;;15.50;99.90;;;;;;6100367;23;20101;-88
2023/08/03 04:50:44;;;;;;;21.33;7.90;;;15.50;99.90;;;;;;6077214;23;20053;-88
2023/08/03 04:53:10;;;;;;;17.10;7.60;;;15.50;99.90;;;;;;6101190;23;20430;-88
2023/08/03 04:55:36;;;;;;;22.27;7.07;;;15.50;99.90;;;;;;6076501;23;20105;-87
2023/08/03 04:58:02;;;;;;;17.35;6.32;;;15.50;99.90;;;;;;6100919;23;20257;-88
2023/08/03 05:00:28;;;;;;;15.07;5.75;;;15.50;99.90;;;;;;6099960;23;20022;-88
2023/08/03 05:02:54;;;;;;;23.85;6.28;;;15.50;99.90;;;;;;6099982;23;20018;-87
2023/08/03 05:05:19;;;;;;;17.15;5.60;;;15.60;99.90;;;;;;6075401;23;20020;-88
2023/08/03 05:07:45;;;;;;;21.30;5.40;;;15.60;99.90;;;;;;6126793;23;20014;-87
2023/08/03 05:10:11;;;;;;;21.10;6.22;;;15.60;99.90;;;;;;6099190;23;20081;-87
2023/08/03 05:12:39;;;;;;;12.53;5.03;;;15.60;99.90;;;;;;6100434;23;20572;-87
2023/08/03 05:15:05;;;;;;;12.57;4.72;;;15.60;99.90;;;;;;6076442;23;20014;-87
2023/08/03 05:17:31;;;;;;;17.13;6.35;;;15.60;99.90;;;;;;6126404;23;20026;-87
2023/08/03 05:19:57;;;;;;;18.20;5.27;;;15.60;99.90;;;;;;6077024;23;20022;-88
2023/08/03 05:22:22;;;;;;;9.43;4.63;;;15.60;99.90;;;;;;6100310;23;20254;-87
2023/08/03 05:24:48;;;;;;;14.33;5.70;;;15.60;99.90;;;;;;6125674;23;20250;-87
2023/08/03 05:27:14;;;;;;;16.17;6.05;;;15.60;99.90;;;;;;6100538;23;20022;-87
2023/08/03 05:29:43;;;;;;;15.27;6.28;;;15.60;99.90;;;;;;6100110;23;20014;-87
2023/08/03 05:32:08;;;;;;;12.82;5.70;;;15.70;99.90;;;;;;6125827;23;20025;-87
2023/08/03 05:34:34;;;;;;;23.90;6.68;;;15.70;99.90;;;;;;6124795;23;20018;-87
2023/08/03 05:37:00;;;;;;;14.10;5.47;;;15.70;99.90;;;;;;6076465;23;20038;-87
2023/08/03 05:39:26;;;;;;;15.13;5.47;;;15.80;99.90;;;;;;6126196;23;20018;-87
2023/08/03 05:41:52;;;;;;;19.60;6.00;;;15.80;99.90;;;;;;6100489;23;20022;-87
2023/08/03 05:44:18;;;;;;;14.90;6.45;;;15.80;99.90;;;;;;6126239;23;20061;-86
2023/08/03 05:46:44;;;;;;;18.58;6.22;;;15.80;99.90;;;;;;6100059;23;20053;-87
2023/08/03 05:49:11;;;;;;;13.07;6.15;;;15.80;99.90;;;;;;6100616;23;20025;-90
2023/08/03 05:51:39;;;;;;;12.73;5.32;;;15.80;99.90;;;;;;6100347;23;20018;-87
2023/08/03 05:54:05;;;;;;;11.27;6.32;;;15.80;99.90;;;;;;6100212;23;20513;-86
2023/08/03 05:56:35;;;;;;;15.50;5.82;;;15.90;99.90;;;;;;6103168;23;20450;-85
2023/08/03 05:59:02;;;;;;;10.32;5.03;;;15.90;99.90;;;;;;6124383;23;20022;-86
2023/08/03 06:01:28;;;;;;;17.52;7.47;;;15.90;99.90;;;;;;6125379;23;20022;-86
2023/08/03 06:03:54;;;;;;;16.55;6.10;;;15.90;99.90;;;;;;6125943;23;20068;-86
2023/08/03 06:06:21;;;;;;;16.27;5.90;;;15.90;99.90;;;;;;6101344;23;20022;-85
2023/08/03 06:08:52;;;;;;;14.00;6.05;;;15.90;99.90;;;;;;6127162;23;20025;-86
2023/08/03 06:11:20;;;;;;;12.80;5.45;;;16.00;99.90;;;;;;6099734;23;20327;-87
2023/08/03 06:13:46;;;;;;;10.57;5.78;;;16.00;99.90;;;;;;6099626;23;20056;-85
2023/08/03 06:16:13;;;;;;;;;;;16.00;99.90;;;;;;6104117;23;20339;-86
2023/08/03 06:18:52;;;;;;;13.35;5.43;;;16.00;99.90;;;;;;6100775;23;19921;-85
2023/08/03 06:21:19;;;;;;;10.20;4.93;;;15.70;99.90;;;;;;6100918;23;20018;-88
2023/08/03 06:23:50;;;;;;;9.27;5.18;;;16.10;99.90;;;;;;6076365;23;20018;-92
2023/08/03 06:26:17;;;;;;;15.93;5.13;;;16.10;99.90;;;;;;6077003;23;20056;-89
2023/08/03 06:28:44;;;;;;;11.60;5.07;;;16.10;99.90;;;;;;6076324;23;20021;-87
2023/08/03 06:31:19;;;;;;;15.13;5.57;;;16.20;99.90;;;;;;6100617;23;20387;-88
2023/08/03 06:33:46;;;;;;;14.80;6.45;;;16.20;99.90;;;;;;6099570;23;20018;-88
2023/08/03 06:36:30;;;;;;;14.13;4.90;;;16.20;99.90;;;;;;6076282;23;20029;-85
2023/08/03 06:38:57;;;;;;;8.90;5.63;;;16.20;99.90;;;;;;6071372;23;20015;-84
2023/08/03 06:41:26;;;;;;;14.73;6.07;;;16.20;99.90;;;;;;6096908;23;20026;-84
2023/08/03 06:43:56;;;;;;;8.95;5.10;;;16.20;99.90;;;;;;6094618;23;20018;-84
2023/08/03 06:46:22;;;;;;;10.85;5.20;;;16.20;99.90;;;;;;6096829;23;20106;-86
2023/08/03 06:48:50;;;;;;;13.73;5.22;;;16.20;99.90;;;;;;6094533;23;20026;-84
2023/08/03 06:51:16;;;;;;;12.93;4.72;;;16.30;99.90;;;;;;6096672;23;20018;-84
2023/08/03 06:53:42;;;;;;;11.02;5.35;;;16.30;99.90;;;;;;6094609;23;20073;-84
2023/08/03 06:56:08;;;;;;;8.65;5.07;;;16.50;99.90;;;;;;6097104;23;20316;-84
2023/08/03 06:58:33;;;;;;;10.73;4.32;;;16.60;99.90;;;;;;6070955;23;20025;-85
2023/08/03 07:00:59;;;;;;;8.90;4.63;;;16.70;99.90;;;;;;6096728;23;20049;-85
2023/08/03 07:03:25;;;;;;;7.82;5.25;;;16.80;99.90;;;;;;6096525;23;20018;-84
2023/08/03 07:05:51;;;;;;;8.90;4.03;;;17.00;99.90;;;;;;6096560;23;20300;-85
2023/08/03 07:08:17;;;;;;;10.43;4.45;;;17.10;99.90;;;;;;6095291;23;20022;-85
2023/08/03 07:10:42;;;;;;;10.18;5.97;;;17.20;99.90;;;;;;6096334;23;20014;-85
2023/08/03 07:13:08;;;;;;;7.18;4.28;;;17.30;99.90;;;;;;6095103;23;20023;-84
2023/08/03 07:15:34;;;;;;;10.15;3.97;;;17.40;99.90;;;;;;6095888;23;20018;-90
2023/08/03 07:18:04;;;;;;;10.55;4.00;;;17.50;99.90;;;;;;6096676;23;20018;-84
2023/08/03 07:20:30;;;;;;;5.13;2.88;;;17.60;99.90;;;;;;6096720;23;20466;-84
2023/08/03 07:22:56;;;;;;;7.05;2.67;;;17.50;99.90;;;;;;6094645;23;20344;-85
2023/08/03 07:25:22;;;;;;;5.20;2.92;;;17.50;99.90;;;;;;6095530;23;20025;-84
2023/08/03 07:27:50;;;;;;;;;;;17.50;99.90;;;;;;6095991;23;20058;-88
2023/08/03 07:30:15;;;;;;;5.28;2.10;;;17.50;99.90;;;;;;6094376;23;19952;-85
2023/08/03 07:32:41;;;;;;;3.70;2.40;;;17.70;99.90;;;;;;6094492;23;20033;-85
2023/08/03 07:35:07;;;;;;;3.22;2.17;;;17.70;99.90;;;;;;6094358;23;20451;-85
2023/08/03 07:37:33;;;;;;;6.18;1.90;;;17.80;99.90;;;;;;6094601;23;20018;-86
2023/08/03 07:39:58;;;;;;;3.42;1.50;;;17.80;99.90;;;;;;6098220;23;20029;-85
2023/08/03 07:42:24;;;;;;;6.13;1.63;;;17.80;99.90;;;;;;6124838;23;20032;-84
2023/08/03 07:44:53;;;;;;;3.85;1.83;;;17.90;99.90;;;;;;6099338;23;20032;-88
2023/08/03 07:47:20;;;;;;;7.10;1.98;;;17.90;99.90;;;;;;6075275;23;20080;-90
2023/08/03 07:49:46;;;;;;;2.38;1.60;;;18.10;99.90;;;;;;6098270;23;20056;-86
2023/08/03 07:52:11;;;;;;;3.00;1.60;;;18.20;99.90;;;;;;6101102;23;20339;-85
2023/08/03 07:54:37;;;;;;;4.90;2.00;;;18.30;99.90;;;;;;6101308;23;20041;-91
2023/08/03 07:57:04;;;;;;;3.42;1.73;;;18.30;99.90;;;;;;6077719;23;20026;-85
2023/08/03 07:59:30;;;;;;;5.03;1.45;;;18.20;99.90;;;;;;6102001;23;20024;-85
2023/08/03 08:01:56;;;;;;;6.25;1.48;;;18.30;99.90;;;;;;6127188;23;20054;-85
2023/08/03 08:04:21;;;;;;;3.22;1.60;;;18.40;99.90;;;;;;6101710;23;20081;-85
2023/08/03 08:06:47;;;;;;;4.05;1.40;;;18.50;99.90;;;;;;6101239;23;20017;-85
2023/08/03 08:09:13;;;;;;;4.93;1.48;;;18.60;99.90;;;;;;6101881;23;20022;-85
2023/08/03 08:11:39;;;;;;;4.78;1.67;;;18.60;99.90;;;;;;6101678;23;20464;-85
2023/08/03 08:14:04;;;;;;;3.90;2.00;;;18.50;99.90;;;;;;6127229;23;20438;-85
2023/08/03 08:16:30;;;;;;;3.38;2.03;;;18.50;99.90;;;;;;6077724;23;20062;-85
2023/08/03 08:18:56;;;;;;;4.30;1.42;;;18.40;99.90;;;;;;6126846;23;20029;-85
2023/08/03 08:21:22;;;;;;;3.60;1.58;;;18.30;99.90;;;;;;6127513;23;20018;-85
2023/08/03 08:23:47;;;;;;;4.10;1.70;;;18.20;99.90;;;;;;6126947;23;20092;-85
2023/08/03 08:26:15;;;;;;;2.30;1.50;;;18.10;99.90;;;;;;6077508;23;20022;-85
2023/08/03 08:28:42;;;;;;;1.92;1.30;;;18.10;99.90;;;;;;6127505;23;20032;-85
2023/08/03 08:31:08;;;;;;;4.50;1.40;;;18.10;99.90;;;;;;6101443;23;20018;-85
2023/08/03 08:33:34;;;;;;;3.90;1.63;;;18.30;99.90;;;;;;6127241;23;20085;-85
2023/08/03 08:36:00;;;;;;;4.07;1.08;;;18.40;99.90;;;;;;6126777;23;20028;-85
2023/08/03 08:38:26;;;;;;;4.30;1.10;;;18.40;99.90;;;;;;6127211;23;20092;-85
2023/08/03 08:40:52;;;;;;;3.85;1.38;;;18.50;99.90;;;;;;6101075;23;20096;-85
2023/08/03 08:43:18;;;;;;;3.95;1.33;;;18.50;99.90;;;;;;6101797;23;20021;-85
2023/08/03 08:45:44;;;;;;;1.70;1.60;;;18.50;99.90;;;;;;6126814;23;20021;-91
2023/08/03 08:48:10;;;;;;;5.85;1.60;;;18.30;99.90;;;;;;6101398;23;20018;-85
2023/08/03 08:50:36;;;;;;;3.47;1.63;;;18.40;99.90;;;;;;6127054;23;20025;-85
2023/08/03 08:53:02;;;;;;;2.45;1.38;;;18.50;99.90;;;;;;6126603;23;20108;-84
2023/08/03 08:55:30;;;;;;;3.83;1.95;;;18.60;99.90;;;;;;6127010;23;20092;-85
2023/08/03 08:57:57;;;;;;;2.50;1.50;;;18.70;99.90;;;;;;6125004;23;20024;-85
2023/08/03 09:00:24;;;;;;;3.17;1.17;;;18.80;99.90;;;;;;6100881;23;20022;-85
2023/08/03 09:02:55;;;;;;;4.32;1.50;;;18.90;99.90;;;;;;6126537;23;20014;-85
2023/08/03 09:05:23;;;;;;;3.28;1.10;;;19.10;99.90;;;;;;6126708;23;20458;-85
2023/08/03 09:08:18;;;;;;;4.00;1.65;;;19.20;99.90;;;;;;6126612;23;20093;-85
2023/08/03 09:10:54;;;;;;;2.60;1.27;;;19.20;99.90;;;;;;6127047;23;20017;-85
2023/08/03 09:13:35;;;;;;;2.55;1.10;;;19.20;99.90;;;;;;6101074;23;20020;-85
2023/08/03 09:16:01;;;;;;;3.97;1.70;;;19.30;99.90;;;;;;6076459;23;20021;-85
2023/08/03 09:18:29;;;;;;;3.03;1.42;;;19.30;99.90;;;;;;6126895;23;20021;-85
2023/08/03 09:21:16;;;;;;;5.18;1.40;;;19.30;99.90;;;;;;6125940;23;20014;-85
2023/08/03 09:23:42;;;;;;;5.22;1.13;;;19.40;98.40;;;;;;6126985;23;20022;-85
2023/08/03 09:26:08;;;;;;;;;;;19.50;99.90;;;;;;6077120;23;20018;-85
2023/08/03 09:28:39;;;;;;;3.55;1.38;;;19.60;93.10;;;;;;6100860;23;19924;-85
2023/08/03 09:31:05;;;;;;;3.22;0.90;;;19.60;99.90;;;;;;6126499;23;20028;-85
2023/08/03 09:33:32;;;;;;;10.95;1.48;;;19.70;99.90;;;;;;6127026;23;20041;-85
2023/08/03 09:36:11;;;;;;;2.13;1.20;;;19.70;99.90;;;;;;6075953;23;20081;-85
2023/08/03 09:38:38;;;;;;;4.53;1.30;;;19.70;99.60;;;;;;6126583;23;20017;-84
2023/08/03 09:41:04;;;;;;;2.50;1.30;;;19.80;99.90;;;;;;6101286;23;20022;-85
2023/08/03 09:43:31;;;;;;;3.38;1.10;;;19.90;99.90;;;;;;6128344;23;20041;-85
2023/08/03 09:45:57;;;;;;;5.88;1.90;;;20.00;99.90;;;;;;6126114;23;20029;-85
2023/08/03 09:48:24;;;;;;;3.10;1.10;;;20.00;99.90;;;;;;6100621;23;20312;-85
2023/08/03 09:50:55;;;;;;;3.35;1.25;;;20.10;99.90;;;;;;6126578;23;20022;-85
2023/08/03 09:53:25;;;;;;;2.05;1.10;;;20.10;99.90;;;;;;6100638;23;20084;-85
2023/08/03 09:56:00;;;;;;;4.97;1.27;;;20.20;99.90;;;;;;6126450;23;20113;-84
2023/08/03 09:58:32;;;;;;;2.10;1.38;;;20.90;98.70;;;;;;6100646;23;20010;-84
2023/08/03 10:01:01;;;;;;;5.57;1.60;;;20.30;97.60;;;;;;6125865;23;20064;-85
2023/08/03 10:03:31;;;;;;;5.45;1.92;;;20.50;99.10;;;;;;6126110;23;20089;-84
2023/08/03 10:06:17;;;;;;;3.00;1.65;;;20.50;97.10;;;;;;6126045;23;20014;-85
2023/08/03 10:08:58;;;;;;;6.20;1.67;;;20.50;75.40;;;;;;6126778;23;20017;-84
2023/08/03 10:11:31;;;;;;;6.03;1.55;;;20.30;89.40;;;;;;6126403;23;20018;-85
2023/08/03 10:14:01;;;;;;;5.43;2.38;;;20.20;94.90;;;;;;6125795;23;20366;-85
2023/08/03 10:16:27;;;;;;;3.28;1.85;;;20.00;97.20;;;;;;6126823;23;20354;-84
2023/08/03 10:18:53;;;;;;;5.20;2.03;;;19.80;99.20;;;;;;6100595;23;20017;-84
2023/08/03 10:21:20;;;;;;;3.90;1.40;;;19.90;99.90;;;;;;6100153;23;20017;-84
2023/08/03 10:24:14;;;;;;;5.35;1.88;;;20.00;99.90;;;;;;6076593;23;20083;-84
2023/08/03 10:26:42;;;;;;;6.50;1.83;;;20.10;95.20;;;;;;6126273;23;20029;-84
2023/08/03 10:29:08;;;;;;;6.05;2.03;;;20.10;97.30;;;;;;6099961;23;20485;-85
2023/08/03 10:31:51;;;;;;;4.30;1.65;;;20.30;97.90;;;;;;6126361;23;20021;-84
2023/08/03 10:34:25;;;;;;;4.20;1.70;;;20.40;95.60;;;;;;6125798;23;20022;-84
2023/08/03 10:36:53;;;;;;;3.38;1.83;;;20.60;91.60;;;;;;6100459;23;20442;-85
2023/08/03 10:39:49;;;;;;;3.80;1.67;;;20.50;91.30;;;;;;6071226;23;20018;-84
2023/08/03 10:42:30;;;;;;;4.60;1.52;;;20.40;68.10;;;;;;6119407;23;20026;-84
2023/08/03 10:45:21;;;;;;;4.30;1.65;;;20.20;48.30;;;;;;6097117;23;20022;-85
2023/08/03 10:47:47;;;;;;;6.00;1.83;;;20.10;66.60;;;;;;6095228;23;20022;-84
2023/08/03 10:50:13;;;;;;;4.20;1.67;;;20.10;92.70;;;;;;6096408;23;20018;-84
2023/08/03 10:52:38;;;;;;;1.95;1.30;;;20.00;93.90;;;;;;6096778;23;20026;-84
2023/08/03 10:55:24;;;;;;;5.05;1.60;;;20.10;95.00;;;;;;6094872;23;20022;-85
2023/08/03 10:57:50;;;;;;;2.92;1.60;;;20.20;90.50;;;;;;6095346;23;20474;-84
2023/08/03 11:00:16;;;;;;;4.60;1.88;;;20.40;95.80;;;;;;6096341;23;20022;-84
2023/08/03 11:02:42;;;;;;;7.03;1.30;;;20.60;94.30;;;;;;6096969;23;20019;-84
2023/08/03 11:05:12;;;;;;;;;;;20.70;93.20;;;;;;6096808;23;20097;-84
2023/08/03 11:07:46;;;;;;;5.28;1.80;;;20.70;46.70;;;;;;6096821;23;19917;-84
2023/08/03 11:10:14;;;;;;;2.90;1.70;;;20.80;76.00;;;;;;6096472;23;20029;-85
2023/08/03 11:12:41;;;;;;;4.63;2.00;;;20.90;75.30;;;;;;6095357;23;20066;-84
2023/08/03 11:15:07;;;;;;;6.70;2.10;;;20.90;77.60;;;;;;6096124;23;20014;-84
2023/08/03 11:17:34;;;;;;;;;;;20.70;70.70;;;;;;6097277;23;20026;-84
2023/08/03 11:20:00;;;;;;;2.83;1.60;;;20.70;14.70;;;;;;6096805;23;19979;-84
2023/08/03 11:22:27;;;;;;;8.50;2.17;;;20.70;82.60;;;;;;6070858;23;20253;-84
2023/08/03 11:24:57;;;;;;;2.47;1.50;;;20.70;76.90;;;;;;6096622;23;20021;-84
2023/08/03 11:27:23;;;;;;;5.50;1.80;;;20.70;67.20;;;;;;6072820;23;20026;-84
2023/08/03 11:29:50;;;;;;;;;;;20.60;78.30;;;;;;6099071;23;20018;-84
2023/08/03 11:32:27;;;;;;;4.53;1.63;;;20.40;39.00;;;;;;6096751;23;20389;-85
2023/08/03 11:34:59;;;;;;;;;;;20.40;70.80;;;;;;6121963;23;20569;-84
2023/08/03 11:37:29;;;;;;;3.55;1.30;;;20.40;36.10;;;;;;6072689;23;20310;-85
2023/08/03 11:39:54;;;;;;;2.40;1.88;;;20.60;90.40;;;;;;6098058;23;20176;-84
2023/08/03 11:42:21;;;;;;;1.30;1.10;;;20.60;89.00;;;;;;6097854;23;20462;-85
2023/08/03 11:44:47;;;;;;;3.75;1.33;;;20.70;84.50;;;;;;6098606;23;20026;-84
2023/08/03 11:47:13;;;;;;;2.83;1.15;;;20.70;80.30;;;;;;6098322;23;20022;-85
2023/08/03 11:49:38;;;;;;;3.13;1.10;;;20.60;72.30;;;;;;6098619;23;20058;-84
2023/08/03 11:52:04;;;;;;;3.80;0.93;;;20.60;71.30;;;;;;6073277;23;20022;-84
2023/08/03 11:54:33;;;;;;;3.35;1.02;;;20.70;72.60;;;;;;6072523;23;20403;-84
2023/08/03 11:59:48;;;;;;;2.28;1.13;;;21.10;63.10;;;;;;6072088;23;20018;-84
2023/08/03 12:02:13;;;;;;;3.60;1.13;;;21.20;64.20;;;;;;6072720;23;20512;-85
2023/08/03 12:04:40;;;;;;;4.00;1.08;;;21.40;55.40;;;;;;6049231;23;20025;-84
2023/08/03 12:07:06;;;;;;;3.17;1.00;;;21.40;54.20;;;;;;6097163;23;20018;-84
2023/08/03 12:09:40;;;;;;;4.85;1.70;;;21.40;53.60;;;;;;6072859;23;20435;-84
2023/08/03 12:12:07;;;;;;;4.85;1.27;;;21.40;47.20;;;;;;6098606;23;20015;-84
2023/08/03 12:14:34;;;;;;;3.75;1.05;;;21.40;55.20;;;;;;6097921;23;20054;-84
2023/08/03 12:16:59;;;;;;;;;;;21.30;56.70;;;;;;6098965;23;20018;-84
2023/08/03 12:19:32;;;;;;;3.97;1.38;;;21.20;4.50;;;;;;6098063;23;19925;-84
2023/08/03 12:22:01;;;;;;;1.73;0.90;;;21.30;64.70;;;;;;6096904;23;20058;-84
2023/08/03 12:24:28;;;;;;;4.20;1.88;;;21.30;60.10;;;;;;6072555;23;20027;-84
2023/08/03 12:26:53;;;;;;;;;;;21.20;46.70;;;;;;6098700;23;20054;-85
2023/08/03 12:29:19;;;;;;;4.70;1.30;;;21.10;1.00;;;;;;6072579;23;19924;-84
2023/08/03 12:31:44;;;;;;;2.42;1.25;;;21.20;70.30;;;;;;6098426;23;20018;-84
2023/08/03 12:34:10;;;;;;;2.90;1.02;;;21.30;66.60;;;;;;6072769;23;20447;-84
2023/08/03 12:36:37;;;;;;;3.40;0.95;;;21.40;61.10;;;;;;6097842;23;20105;-84
2023/08/03 12:39:05;;;;;;;4.20;1.00;;;21.50;60.80;;;;;;6111256;23;20025;-84
2023/08/03 12:41:31;;;;;;;1.52;1.08;;;21.70;62.20;;;;;;6127392;23;20033;-84
2023/08/03 12:43:57;;;;;;;2.58;1.05;;;21.90;58.90;;;;;;6127351;23;20017;-84
2023/08/03 12:46:22;;;;;;;1.45;0.98;;;22.00;53.00;;;;;;6127003;23;20053;-84
2023/08/03 12:48:50;;;;;;;1.52;0.80;;;22.20;43.60;;;;;;6101954;23;20136;-84
2023/08/03 12:51:17;;;;;;;2.75;1.15;;;22.20;36.10;;;;;;6127891;23;20029;-84